createdAt,value
2023-01-12T00:02:25.333Z,17.23
2023-01-12T00:04:59.204Z,13.50
2023-01-12T00:07:33.466Z,15.63
2023-01-12T00:10:09.746Z,17.25
2023-01-12T00:12:43.190Z,16.85
2023-01-12T00:15:17.103Z,15.35
2023-01-12T00:17:50.553Z,14.27
2023-01-12T00:20:24.270Z,12.20
2023-01-12T00:22:58.209Z,15.88
2023-01-12T00:25:33.207Z,15.20
2023-01-12T00:28:06.698Z,15.43
2023-01-12T00:30:40.609Z,12.27
2023-01-12T00:33:15.907Z,13.13
2023-01-12T00:35:49.546Z,15.68
2023-01-12T00:38:23.044Z,16.55
2023-01-12T00:40:57.937Z,16.33
2023-01-12T00:43:57.343Z,11.02
2023-01-12T00:46:31.645Z,13.50
2023-01-12T00:49:06.022Z,10.50
2023-01-12T00:51:39.646Z,12.85
2023-01-12T00:54:13.236Z,11.35
2023-01-12T00:56:48.548Z,14.20
2023-01-12T00:59:22.011Z,15.27
2023-01-12T01:01:55.700Z,14.23
2023-01-12T01:04:29.165Z,12.27
2023-01-12T01:07:03.061Z,12.80
2023-01-12T01:09:36.515Z,14.25
2023-01-12T01:12:12.012Z,11.35
2023-01-12T01:14:45.499Z,10.80
2023-01-12T01:17:19.267Z,11.13
2023-01-12T01:19:52.877Z,10.98
2023-01-12T01:22:26.388Z,10.02
2023-01-12T01:25:00.179Z,10.13
2023-01-12T01:27:35.321Z,12.27
2023-01-12T01:30:10.152Z,13.35
2023-01-12T01:32:44.010Z,13.75
2023-01-12T01:35:17.811Z,13.32
2023-01-12T01:37:51.454Z,13.90
2023-01-12T01:40:25.411Z,11.68
2023-01-12T01:43:00.843Z,12.07
2023-01-12T01:45:34.773Z,11.35
2023-01-12T01:48:12.045Z,10.35
2023-01-12T01:50:53.368Z,10.38
2023-01-12T01:53:29.768Z,9.48
2023-01-12T01:56:07.383Z,8.90
2023-01-12T01:58:46.110Z,8.23
2023-01-12T02:01:19.647Z,8.50
2023-01-12T02:03:56.225Z,8.13
2023-01-12T02:06:31.728Z,7.13
2023-01-12T02:09:09.788Z,6.57
2023-01-12T02:12:00.916Z,7.18
2023-01-12T02:14:52.990Z,6.82
2023-01-12T02:17:48.780Z,6.63
2023-01-12T02:20:51.472Z,9.25
2023-01-12T02:23:49.822Z,9.57
2023-01-12T02:27:13.319Z,9.80
2023-01-12T02:32:49.939Z,8.98
2023-01-12T02:35:28.280Z,10.68
2023-01-12T02:38:09.953Z,8.95
2023-01-12T02:40:52.105Z,7.80
2023-01-12T02:43:28.118Z,7.90
2023-01-12T02:46:11.620Z,8.48
2023-01-12T02:48:52.830Z,9.25
2023-01-12T02:51:33.684Z,8.70
2023-01-12T02:54:10.925Z,8.20
2023-01-12T02:56:47.291Z,7.78
2023-01-12T02:59:24.152Z,7.35
2023-01-12T03:02:01.059Z,8.20
2023-01-12T03:04:36.280Z,7.97
2023-01-12T03:07:36.311Z,6.97
2023-01-12T03:10:42.125Z,9.57
2023-01-12T03:13:18.108Z,11.30
2023-01-12T03:15:55.720Z,12.68
2023-01-12T03:18:34.281Z,11.27
2023-01-12T03:21:14.411Z,10.38
2023-01-12T03:23:50.534Z,10.23
2023-01-12T03:26:27.939Z,9.27
2023-01-12T03:29:08.280Z,9.18
2023-01-12T03:31:43.166Z,9.52
2023-01-12T03:34:16.801Z,10.55
2023-01-12T03:36:58.418Z,11.60
2023-01-12T03:39:38.867Z,9.68
2023-01-12T03:42:18.744Z,11.07
2023-01-12T03:44:57.940Z,10.02
2023-01-12T03:47:33.522Z,10.48
2023-01-12T03:50:10.985Z,10.27
2023-01-12T03:52:47.238Z,11.50
2023-01-12T03:55:24.456Z,11.27
2023-01-12T03:57:58.941Z,10.30
2023-01-12T04:00:32.890Z,12.75
2023-01-12T04:03:10.606Z,12.45
2023-01-12T04:05:45.458Z,11.50
2023-01-12T04:08:20.356Z,12.32
2023-01-12T04:10:53.794Z,10.48
2023-01-12T04:13:26.614Z,10.73
2023-01-12T04:16:00.387Z,10.32
2023-01-12T04:18:33.896Z,9.75
2023-01-12T04:21:27.393Z,9.50
2023-01-12T04:24:01.483Z,10.25
2023-01-12T04:26:35.131Z,11.40
2023-01-12T04:29:08.581Z,9.52
2023-01-12T04:31:42.222Z,10.82
2023-01-12T04:34:15.744Z,9.77
2023-01-12T04:36:49.203Z,12.15
2023-01-12T04:39:43.042Z,9.40
2023-01-12T04:42:33.965Z,9.35
2023-01-12T04:45:08.412Z,9.80
2023-01-12T04:47:42.224Z,9.63
2023-01-12T04:50:16.266Z,9.27
2023-01-12T04:52:49.936Z,9.48
2023-01-12T04:55:24.818Z,11.35
2023-01-12T04:57:58.922Z,11.63
2023-01-12T05:00:32.534Z,14.30
2023-01-12T05:03:06.357Z,16.83
2023-01-12T05:05:39.922Z,16.05
2023-01-12T05:08:31.033Z,15.18
2023-01-12T05:11:06.189Z,13.73
2023-01-12T05:13:39.998Z,15.98
2023-01-12T05:16:15.612Z,14.07
2023-01-12T05:18:49.374Z,13.38
2023-01-12T05:21:24.441Z,13.27
2023-01-12T05:23:57.899Z,11.63
2023-01-12T05:26:32.779Z,12.85
2023-01-12T05:29:06.619Z,12.43
2023-01-12T05:31:40.236Z,11.02
2023-01-12T05:34:14.353Z,11.25
2023-01-12T05:36:48.261Z,12.70
2023-01-12T05:39:22.089Z,12.52
2023-01-12T05:42:14.178Z,13.20
2023-01-12T05:44:47.808Z,11.52
2023-01-12T05:47:21.237Z,11.10
2023-01-12T05:49:54.890Z,13.10
2023-01-12T05:52:28.420Z,12.15
2023-01-12T05:55:04.647Z,10.18
2023-01-12T05:57:39.553Z,12.98
2023-01-12T06:00:14.251Z,10.52
2023-01-12T06:02:47.764Z,10.73
2023-01-12T06:05:21.269Z,12.80
2023-01-12T06:07:55.128Z,15.15
2023-01-12T06:10:28.628Z,13.43
2023-01-12T06:13:21.290Z,10.48
2023-01-12T06:15:54.909Z,10.38
2023-01-12T06:18:28.575Z,11.35
2023-01-12T06:21:02.057Z,10.77
2023-01-12T06:23:36.053Z,11.07
2023-01-12T06:26:10.799Z,11.70
2023-01-12T06:28:45.734Z,10.38
2023-01-12T06:31:19.356Z,12.90
2023-01-12T06:33:53.014Z,13.18
2023-01-12T06:36:26.552Z,11.70
2023-01-12T06:39:00.023Z,12.07
2023-01-12T06:41:53.091Z,12.00
2023-01-12T06:44:27.950Z,12.52
2023-01-12T06:47:03.769Z,12.35
2023-01-12T06:49:37.437Z,12.65
2023-01-12T06:52:10.925Z,12.30
2023-01-12T06:54:44.547Z,13.75
2023-01-12T06:57:18.323Z,12.10
2023-01-12T06:59:53.209Z,23.45
2023-01-12T07:02:26.683Z,17.40
2023-01-12T07:05:00.487Z,23.65
2023-01-12T07:07:34.182Z,20.40
2023-01-12T07:10:08.097Z,21.08
2023-01-12T07:12:42.102Z,19.67
2023-01-12T07:15:17.141Z,55.70
2023-01-12T07:17:56.594Z,44.25
2023-01-12T07:20:30.153Z,20.63
2023-01-12T07:23:03.823Z,16.77
2023-01-12T07:25:37.492Z,16.98
2023-01-12T07:28:11.286Z,16.52
2023-01-12T07:30:46.416Z,14.32
2023-01-12T07:33:20.050Z,15.25
2023-01-12T07:35:54.380Z,16.25
2023-01-12T07:38:28.001Z,15.73
2023-01-12T07:41:02.116Z,14.70
2023-01-12T07:43:35.556Z,12.50
2023-01-12T07:46:10.514Z,13.52
2023-01-12T07:48:44.195Z,14.40
2023-01-12T07:51:17.824Z,13.45
2023-01-12T07:53:51.281Z,11.15
2023-01-12T07:56:24.737Z,13.40
2023-01-12T07:58:58.393Z,16.05
2023-01-12T08:01:35.919Z,14.73
2023-01-12T08:04:09.686Z,15.52
2023-01-12T08:06:43.350Z,14.32
2023-01-12T08:09:16.861Z,13.90
2023-01-12T08:11:50.547Z,14.65
2023-01-12T08:14:31.327Z,13.73
2023-01-12T08:17:09.747Z,15.60
2023-01-12T08:19:47.385Z,24.08
2023-01-12T08:22:26.092Z,18.98
2023-01-12T08:25:03.528Z,20.70
2023-01-12T08:27:40.943Z,12.93
2023-01-12T08:30:21.070Z,10.52
2023-01-12T08:32:58.377Z,10.07
2023-01-12T08:35:35.588Z,11.10
2023-01-12T08:38:09.260Z,13.48
2023-01-12T08:40:59.974Z,13.70
2023-01-12T08:43:51.088Z,12.80
2023-01-12T08:46:24.612Z,11.15
2023-01-12T08:48:59.858Z,13.80
2023-01-12T08:51:33.381Z,13.05
2023-01-12T08:54:07.788Z,13.02
2023-01-12T08:56:41.654Z,13.25
2023-01-12T08:59:16.163Z,11.70
2023-01-12T09:01:49.964Z,9.65
2023-01-12T09:04:28.127Z,9.43
2023-01-12T09:07:01.661Z,9.73
2023-01-12T09:09:35.621Z,18.20
2023-01-12T09:12:09.232Z,12.50
2023-01-12T09:14:42.768Z,11.25
2023-01-12T09:17:16.268Z,11.23
2023-01-12T09:19:51.595Z,10.75
2023-01-12T09:22:26.392Z,10.60
2023-01-12T09:24:59.907Z,10.30
2023-01-12T09:27:33.389Z,11.63
2023-01-12T09:30:07.980Z,13.98
2023-01-12T09:32:41.436Z,12.32
2023-01-12T09:35:20.082Z,13.95
2023-01-12T09:37:53.682Z,12.98
2023-01-12T09:40:27.232Z,13.25
2023-01-12T09:43:17.752Z,13.18
2023-01-12T09:46:11.169Z,13.13
2023-01-12T09:48:45.012Z,13.02
2023-01-12T09:51:28.706Z,14.88
2023-01-12T09:54:02.976Z,13.77
2023-01-12T09:56:39.867Z,13.65
2023-01-12T09:59:26.960Z,12.50
2023-01-12T10:02:00.612Z,11.35
2023-01-12T10:04:34.237Z,11.70
2023-01-12T10:07:14.703Z,12.27
2023-01-12T10:09:48.334Z,11.48
2023-01-12T10:12:30.476Z,9.70
2023-01-12T10:15:25.491Z,9.93
2023-01-12T10:18:05.166Z,12.25
2023-01-12T10:20:40.842Z,10.30
2023-01-12T10:23:26.692Z,9.40
2023-01-12T10:26:12.078Z,10.00
2023-01-12T10:28:47.712Z,9.23
2023-01-12T10:31:22.852Z,8.85
2023-01-12T10:34:08.029Z,9.55
2023-01-12T10:36:44.782Z,10.00
2023-01-12T10:39:32.088Z,10.10
2023-01-12T10:42:44.255Z,9.68
2023-01-12T10:45:20.825Z,10.70
2023-01-12T10:47:56.199Z,8.60
2023-01-12T10:50:32.793Z,10.55
2023-01-12T10:53:14.509Z,10.55
2023-01-12T10:55:49.446Z,10.65
2023-01-12T10:58:26.720Z,10.50
2023-01-12T11:01:00.581Z,9.68
2023-01-12T11:03:37.396Z,9.40
2023-01-12T11:06:38.830Z,8.98
2023-01-12T11:09:23.373Z,9.48
2023-01-12T11:11:59.858Z,9.35
2023-01-12T11:14:35.965Z,9.20
2023-01-12T11:17:37.667Z,9.05
2023-01-12T11:20:21.465Z,10.50
2023-01-12T11:22:58.218Z,9.73
2023-01-12T11:25:35.660Z,11.00
2023-01-12T11:28:17.245Z,11.43
2023-01-12T11:30:54.236Z,10.50
2023-01-12T11:33:32.149Z,10.98
2023-01-12T11:36:08.125Z,11.55
2023-01-12T11:38:46.049Z,11.38
2023-01-12T11:41:25.529Z,10.18
2023-01-12T11:44:07.820Z,10.18
2023-01-12T11:46:46.576Z,8.45
2023-01-12T11:49:25.696Z,9.65
2023-01-12T11:52:02.356Z,8.77
2023-01-12T11:54:38.419Z,9.85
2023-01-12T11:57:35.770Z,8.32
2023-01-12T12:00:39.614Z,9.48
2023-01-12T12:03:36.293Z,9.70
2023-01-12T12:06:35.727Z,9.15
2023-01-12T12:09:27.090Z,9.07
2023-01-12T12:12:03.654Z,9.85
2023-01-12T12:14:52.754Z,9.32
2023-01-12T12:17:36.943Z,9.05
2023-01-12T12:20:19.038Z,9.45
2023-01-12T12:23:11.556Z,8.48
2023-01-12T12:25:54.027Z,9.70
2023-01-12T12:28:48.549Z,9.52
2023-01-12T12:31:41.283Z,8.18
2023-01-12T12:34:51.751Z,8.27
2023-01-12T12:37:49.860Z,7.50
2023-01-12T12:40:58.305Z,8.25
2023-01-12T12:43:51.444Z,8.57
2023-01-12T12:46:34.313Z,7.68
2023-01-12T12:49:12.649Z,8.75
2023-01-12T12:51:47.310Z,8.77
2023-01-12T12:54:24.181Z,8.80
2023-01-12T12:56:58.706Z,7.72
2023-01-12T12:59:55.327Z,6.95
2023-01-12T13:02:40.438Z,7.55
2023-01-12T13:05:41.432Z,6.38
2023-01-12T13:08:24.494Z,7.95
2023-01-12T13:10:59.992Z,7.43
2023-01-12T13:13:34.820Z,7.47
2023-01-12T13:16:42.411Z,7.40
2023-01-12T13:19:31.851Z,7.28
2023-01-12T13:22:29.883Z,7.25
2023-01-12T13:25:05.386Z,7.68
2023-01-12T13:28:18.941Z,7.32
2023-01-12T13:30:53.575Z,7.55
2023-01-12T13:33:28.756Z,8.20
2023-01-12T13:36:10.293Z,6.68
2023-01-12T13:39:02.079Z,6.85
2023-01-12T13:41:54.757Z,7.47
2023-01-12T13:44:35.015Z,10.63
2023-01-12T13:47:11.446Z,7.82
2023-01-12T13:49:48.883Z,10.52
2023-01-12T13:52:30.459Z,8.48
2023-01-12T13:55:06.417Z,11.52
2023-01-12T13:57:40.033Z,6.60
2023-01-12T14:00:22.481Z,8.20
2023-01-12T14:02:56.682Z,6.30
2023-01-12T14:05:44.204Z,6.70
2023-01-12T14:08:51.821Z,6.55
2023-01-12T14:11:57.942Z,7.15
2023-01-12T14:15:12.665Z,8.48
2023-01-12T14:17:52.787Z,9.05
2023-01-12T14:20:28.087Z,7.63
2023-01-12T14:23:15.947Z,6.95
2023-01-12T14:26:05.833Z,7.70
2023-01-12T14:28:40.783Z,8.95
2023-01-12T14:31:23.223Z,7.97
2023-01-12T14:34:00.897Z,31.15
2023-01-12T14:36:42.578Z,15.38
2023-01-12T14:39:20.303Z,8.23
2023-01-12T14:42:12.891Z,14.70
2023-01-12T14:45:09.635Z,7.75
2023-01-12T14:47:43.487Z,13.60
2023-01-12T14:50:23.817Z,18.67
2023-01-12T14:52:57.354Z,18.65
2023-01-12T14:55:41.351Z,9.70
2023-01-12T14:58:22.412Z,26.65
2023-01-12T15:00:56.091Z,17.52
2023-01-12T15:03:39.414Z,13.40
2023-01-12T15:06:18.562Z,14.65
2023-01-12T15:08:57.834Z,14.00
2023-01-12T15:11:35.063Z,11.15
2023-01-12T15:14:24.977Z,18.15
2023-01-12T15:17:16.054Z,17.08
2023-01-12T15:20:06.998Z,11.70
2023-01-12T15:23:01.585Z,9.88
2023-01-12T15:25:38.031Z,8.57
2023-01-12T15:28:11.641Z,11.00
2023-01-12T15:30:45.187Z,10.90
2023-01-12T15:33:18.996Z,11.48
2023-01-12T15:35:52.481Z,10.50
2023-01-12T15:38:29.129Z,11.57
2023-01-12T15:41:02.726Z,14.75
2023-01-12T15:43:36.262Z,11.63
2023-01-12T15:46:18.532Z,14.77
2023-01-12T15:48:52.267Z,16.02
2023-01-12T15:51:25.813Z,17.80
2023-01-12T15:54:00.952Z,16.15
2023-01-12T15:56:35.098Z,12.60
2023-01-12T15:59:08.722Z,13.63
2023-01-12T16:01:45.233Z,22.95
2023-01-12T16:07:13.845Z,38.33
2023-01-12T16:09:50.642Z,23.42
2023-01-12T16:12:24.865Z,27.58
2023-01-12T16:14:58.864Z,14.50
2023-01-12T16:17:32.393Z,18.65
2023-01-12T16:20:06.762Z,20.17
2023-01-12T16:22:40.436Z,41.83
2023-01-12T16:25:16.266Z,24.33
2023-01-12T16:27:49.931Z,18.45
2023-01-12T16:30:23.628Z,27.85
2023-01-12T16:32:59.190Z,26.85
2023-01-12T16:35:34.515Z,25.08
2023-01-12T16:38:08.084Z,25.35
2023-01-12T16:40:43.722Z,23.55
2023-01-12T16:43:20.974Z,18.23
2023-01-12T16:45:54.588Z,20.25
2023-01-12T16:48:28.114Z,20.90
2023-01-12T16:51:01.618Z,21.20
2023-01-12T16:53:35.090Z,18.02
2023-01-12T16:56:12.181Z,23.70
2023-01-12T16:58:48.564Z,23.98
2023-01-12T17:01:24.781Z,23.15
2023-01-12T17:03:58.741Z,30.67
2023-01-12T17:06:32.643Z,32.35
2023-01-12T17:09:07.458Z,45.05
2023-01-12T17:11:43.800Z,78.45
2023-01-12T17:14:27.663Z,58.63
2023-01-12T17:17:04.189Z,62.90
2023-01-12T17:19:39.425Z,76.18
2023-01-12T17:22:13.421Z,80.95
2023-01-12T17:24:47.204Z,81.75
2023-01-12T17:27:22.210Z,71.68
2023-01-12T17:29:55.828Z,66.88
2023-01-12T17:32:29.645Z,81.75
2023-01-12T17:35:04.481Z,70.68
2023-01-12T17:37:38.412Z,81.15
2023-01-12T17:40:12.924Z,78.20
2023-01-12T17:43:07.784Z,71.28
2023-01-12T17:45:43.525Z,67.28
2023-01-12T17:48:19.473Z,76.82
2023-01-12T17:50:53.100Z,76.65
2023-01-12T17:53:26.676Z,84.10
2023-01-12T17:56:03.933Z,71.78
2023-01-12T17:58:38.863Z,88.78
2023-01-12T18:01:13.020Z,65.03
2023-01-12T18:03:46.595Z,60.88
2023-01-12T18:06:26.431Z,62.13
2023-01-12T18:09:00.771Z,66.65
2023-01-12T18:11:34.743Z,64.65
2023-01-12T18:14:10.331Z,61.75
2023-01-12T18:16:43.855Z,56.72
2023-01-12T18:19:17.465Z,50.42
2023-01-12T18:21:51.214Z,56.63
2023-01-12T18:24:24.754Z,46.35
2023-01-12T18:26:58.306Z,39.38
2023-01-12T18:29:33.282Z,41.03
2023-01-12T18:32:07.611Z,35.17
2023-01-12T18:34:41.759Z,36.35
2023-01-12T18:37:15.265Z,35.90
2023-01-12T18:39:50.523Z,38.72
2023-01-12T18:42:42.082Z,37.60
2023-01-12T18:45:17.145Z,42.65
2023-01-12T18:48:08.235Z,35.55
2023-01-12T18:50:59.299Z,37.92
2023-01-12T18:53:33.904Z,38.70
2023-01-12T18:56:08.144Z,24.40
2023-01-12T18:58:45.399Z,34.38
2023-01-12T19:01:24.460Z,32.17
2023-01-12T19:03:58.178Z,25.50
2023-01-12T19:06:43.072Z,29.13
2023-01-12T19:09:42.494Z,23.90
2023-01-12T19:12:16.012Z,21.65
2023-01-12T19:15:07.063Z,26.27
2023-01-12T19:17:42.198Z,37.65
2023-01-12T19:20:17.232Z,44.70
2023-01-12T19:23:08.288Z,48.15
2023-01-12T19:26:07.576Z,41.38
2023-01-12T19:28:41.747Z,33.72
2023-01-12T19:31:16.825Z,35.35
2023-01-12T19:33:51.986Z,30.17
2023-01-12T19:36:44.143Z,27.90
2023-01-12T19:39:25.565Z,26.13
2023-01-12T19:42:16.722Z,24.67
2023-01-12T19:44:50.348Z,22.30
2023-01-12T19:47:23.899Z,24.50
2023-01-12T19:49:58.871Z,31.15
2023-01-12T19:52:32.999Z,35.90
2023-01-12T19:55:09.048Z,28.48
2023-01-12T19:57:43.603Z,33.72
2023-01-12T20:00:18.293Z,30.58
2023-01-12T20:02:51.891Z,29.13
2023-01-12T20:05:26.927Z,42.35
2023-01-12T20:08:00.525Z,29.15
2023-01-12T20:10:34.812Z,28.63
2023-01-12T20:13:09.556Z,31.70
2023-01-12T20:15:44.861Z,36.42
2023-01-12T20:18:18.791Z,30.98
2023-01-12T20:20:58.648Z,33.30
2023-01-12T20:23:32.158Z,29.45
2023-01-12T20:26:09.128Z,31.27
2023-01-12T20:28:43.132Z,29.88
2023-01-12T20:31:20.384Z,30.33
2023-01-12T20:33:55.456Z,26.55
2023-01-12T20:36:30.944Z,25.42
2023-01-12T20:39:05.580Z,28.70
2023-01-12T20:41:40.237Z,24.42
2023-01-12T20:44:17.645Z,23.45
2023-01-12T20:46:51.732Z,23.77
2023-01-12T20:49:25.866Z,25.85
2023-01-12T20:52:01.565Z,27.60
2023-01-12T20:54:35.847Z,33.95
2023-01-12T20:57:10.254Z,31.35
2023-01-12T20:59:44.538Z,43.60
2023-01-12T21:02:21.382Z,37.83
2023-01-12T21:04:55.057Z,35.72
2023-01-12T21:07:30.240Z,30.58
2023-01-12T21:10:03.981Z,26.88
2023-01-12T21:12:37.775Z,25.88
2023-01-12T21:15:13.527Z,21.27
2023-01-12T21:17:47.246Z,26.33
2023-01-12T21:20:20.925Z,24.70
2023-01-12T21:22:55.920Z,23.23
2023-01-12T21:25:30.673Z,21.45
2023-01-12T21:28:04.241Z,24.90
2023-01-12T21:30:39.213Z,34.50
2023-01-12T21:33:13.376Z,38.42
2023-01-12T21:35:55.856Z,22.90
2023-01-12T21:38:30.807Z,15.90
2023-01-12T21:41:07.185Z,15.48
2023-01-12T21:43:40.812Z,12.18
2023-01-12T21:46:14.436Z,12.25
2023-01-12T21:48:48.588Z,20.50
2023-01-12T21:51:22.420Z,23.05
2023-01-12T21:53:57.837Z,18.10
2023-01-12T21:56:31.362Z,27.27
2023-01-12T21:59:04.962Z,27.85
2023-01-12T22:01:38.619Z,24.80
2023-01-12T22:04:12.497Z,13.32
2023-01-12T22:06:46.415Z,14.52
2023-01-12T22:09:21.400Z,19.48
2023-01-12T22:11:54.965Z,15.32
2023-01-12T22:14:28.531Z,19.60
2023-01-12T22:17:02.061Z,21.08
2023-01-12T22:19:37.009Z,16.23
2023-01-12T22:22:11.772Z,20.13
2023-01-12T22:24:46.740Z,30.73
2023-01-12T22:27:20.309Z,34.58
2023-01-12T22:29:53.855Z,65.00
2023-01-12T22:32:27.427Z,46.33
2023-01-12T22:35:01.015Z,32.20
2023-01-12T22:37:37.483Z,25.52
2023-01-12T22:40:13.764Z,22.83
2023-01-12T22:43:03.929Z,21.42
2023-01-12T22:45:38.221Z,39.03
2023-01-12T22:48:11.810Z,37.60
2023-01-12T22:50:46.036Z,30.10
2023-01-12T22:53:19.536Z,24.77
2023-01-12T22:55:54.648Z,30.88
2023-01-12T22:58:28.234Z,30.20
2023-01-12T23:01:06.182Z,29.42
2023-01-12T23:03:39.800Z,26.30
2023-01-12T23:06:14.731Z,28.88
2023-01-12T23:08:48.268Z,28.58
2023-01-12T23:11:25.190Z,26.23
2023-01-12T23:13:58.774Z,24.88
2023-01-12T23:16:32.355Z,34.33
2023-01-12T23:19:05.920Z,35.63
2023-01-12T23:21:41.538Z,40.10
2023-01-12T23:24:16.879Z,33.20
2023-01-12T23:26:51.772Z,39.78
2023-01-12T23:29:25.298Z,41.83
2023-01-12T23:31:58.983Z,39.08
2023-01-12T23:34:32.947Z,39.40
2023-01-12T23:37:06.469Z,30.88
2023-01-12T23:39:40.114Z,35.33
2023-01-12T23:42:15.366Z,32.47
2023-01-12T23:44:48.854Z,31.25
2023-01-12T23:47:23.500Z,33.90
2023-01-12T23:49:57.436Z,28.55
2023-01-12T23:52:31.156Z,38.97
2023-01-12T23:55:05.344Z,33.53
2023-01-12T23:57:40.200Z,31.63
